createdAt,value
2018-02-18T00:01:19.887Z,4.40
2018-02-18T00:03:47.872Z,3.80
2018-02-18T00:06:15.894Z,4.03
2018-02-18T00:08:43.883Z,5.90
2018-02-18T00:11:11.894Z,4.43
2018-02-18T00:13:39.806Z,5.97
2018-02-18T00:16:07.745Z,6.43
2018-02-18T00:18:35.652Z,6.33
2018-02-18T00:21:03.624Z,5.57
2018-02-18T00:23:31.517Z,5.17
2018-02-18T00:25:59.520Z,4.50
2018-02-18T00:28:27.429Z,4.63
2018-02-18T00:30:55.447Z,4.13
2018-02-18T00:33:23.370Z,4.70
2018-02-18T00:35:51.353Z,4.30
2018-02-18T00:38:19.275Z,3.90
2018-02-18T00:40:47.195Z,4.03
2018-02-18T00:43:15.100Z,4.07
2018-02-18T00:45:43.028Z,4.47
2018-02-18T00:48:11.039Z,4.70
2018-02-18T00:50:39.785Z,4.37
2018-02-18T00:53:07.630Z,4.13
2018-02-18T00:55:35.622Z,3.37
2018-02-18T00:58:03.531Z,3.90
2018-02-18T01:00:31.468Z,3.27
2018-02-18T01:02:59.406Z,3.47
2018-02-18T01:05:27.321Z,3.50
2018-02-18T01:07:55.245Z,4.40
2018-02-18T01:10:23.166Z,3.57
2018-02-18T01:12:51.089Z,4.13
2018-02-18T01:15:19.194Z,5.30
2018-02-18T01:17:47.078Z,3.70
2018-02-18T01:20:15.726Z,2.83
2018-02-18T01:22:43.629Z,4.50
2018-02-18T01:25:11.543Z,4.63
2018-02-18T01:27:39.465Z,3.37
2018-02-18T01:30:07.370Z,4.13
2018-02-18T01:32:35.290Z,3.90
2018-02-18T01:35:03.206Z,3.13
2018-02-18T01:37:31.127Z,3.60
2018-02-18T01:39:59.034Z,4.53
2018-02-18T01:42:26.953Z,3.70
2018-02-18T01:44:54.873Z,3.93
2018-02-18T01:47:22.849Z,4.33
2018-02-18T01:49:50.825Z,4.27
2018-02-18T01:52:18.732Z,3.93
2018-02-18T01:54:46.652Z,5.43
2018-02-18T01:57:14.572Z,4.77
2018-02-18T01:59:42.498Z,4.63
2018-02-18T02:02:10.578Z,4.90
2018-02-18T02:04:38.518Z,4.83
2018-02-18T02:07:06.573Z,5.50
2018-02-18T02:09:34.577Z,4.70
2018-02-18T02:12:02.515Z,4.70
2018-02-18T02:14:30.413Z,4.33
2018-02-18T02:16:58.410Z,5.30
2018-02-18T02:19:26.322Z,5.50
2018-02-18T02:21:54.261Z,4.80
2018-02-18T02:24:22.506Z,6.17
2018-02-18T02:26:50.454Z,5.20
2018-02-18T02:29:18.417Z,5.50
2018-02-18T02:31:46.434Z,5.87
2018-02-18T02:34:14.367Z,4.50
2018-02-18T02:36:42.493Z,4.10
2018-02-18T02:39:10.586Z,4.60
2018-02-18T02:41:38.558Z,5.73
2018-02-18T02:44:06.518Z,5.60
2018-02-18T02:46:34.471Z,5.07
2018-02-18T02:49:02.502Z,4.90
2018-02-18T02:51:30.434Z,4.90
2018-02-18T02:53:58.470Z,4.87
2018-02-18T02:56:26.446Z,5.23
2018-02-18T02:58:54.439Z,4.47
2018-02-18T03:01:22.470Z,4.33
2018-02-18T03:03:50.719Z,4.50
2018-02-18T03:06:18.714Z,4.80
2018-02-18T03:08:46.638Z,6.00
2018-02-18T03:11:14.548Z,4.70
2018-02-18T03:13:42.459Z,4.53
2018-02-18T03:16:10.423Z,4.23
2018-02-18T03:18:38.336Z,4.30
2018-02-18T03:21:06.422Z,4.10
2018-02-18T03:23:34.330Z,4.20
2018-02-18T03:26:02.378Z,6.27
2018-02-18T03:28:30.282Z,3.90
2018-02-18T03:30:58.183Z,4.67
2018-02-18T03:33:26.554Z,4.03
2018-02-18T03:35:54.528Z,4.00
2018-02-18T03:38:22.438Z,4.47
2018-02-18T03:40:50.353Z,5.10
2018-02-18T03:43:18.410Z,4.30
2018-02-18T03:45:46.427Z,4.00
2018-02-18T03:48:15.041Z,3.60
2018-02-18T03:50:42.953Z,4.90
2018-02-18T03:53:10.922Z,3.00
2018-02-18T03:55:38.899Z,2.80
2018-02-18T03:58:06.903Z,3.50
2018-02-18T04:00:34.878Z,2.60
2018-02-18T04:03:02.854Z,4.10
2018-02-18T04:05:30.762Z,2.57
2018-02-18T04:07:58.700Z,2.47
2018-02-18T04:10:26.681Z,3.00
2018-02-18T04:12:54.641Z,2.43
2018-02-18T04:15:22.563Z,2.07
2018-02-18T04:17:50.478Z,2.40
2018-02-18T04:20:18.537Z,2.90
2018-02-18T04:22:46.434Z,2.47
2018-02-18T04:25:14.348Z,2.90
2018-02-18T04:27:42.442Z,3.00
2018-02-18T04:30:10.364Z,2.37
2018-02-18T04:32:38.273Z,2.33
2018-02-18T04:35:06.193Z,3.00
2018-02-18T04:37:34.114Z,2.70
2018-02-18T04:40:02.095Z,2.03
2018-02-18T04:42:30.034Z,2.20
2018-02-18T04:44:58.465Z,2.80
2018-02-18T04:47:26.445Z,2.20
2018-02-18T04:49:54.426Z,2.70
2018-02-18T04:52:22.356Z,2.70
2018-02-18T04:54:50.294Z,2.60
2018-02-18T04:57:19.058Z,2.20
2018-02-18T04:59:47.058Z,2.33
2018-02-18T05:02:14.966Z,2.30
2018-02-18T05:04:42.946Z,2.20
2018-02-18T05:07:10.886Z,2.00
2018-02-18T05:09:39.507Z,2.70
2018-02-18T05:12:07.390Z,2.90
2018-02-18T05:14:35.385Z,2.40
2018-02-18T05:17:03.296Z,2.63
2018-02-18T05:19:31.209Z,2.00
2018-02-18T05:21:59.129Z,2.20
2018-02-18T05:24:27.149Z,2.10
2018-02-18T05:26:55.070Z,2.60
2018-02-18T05:29:23.037Z,2.33
2018-02-18T05:31:51.011Z,2.40
2018-02-18T05:34:19.053Z,3.00
2018-02-18T05:36:47.042Z,2.40
2018-02-18T05:39:15.010Z,2.70
2018-02-18T05:41:42.905Z,2.53
2018-02-18T05:44:10.841Z,2.57
2018-02-18T05:46:38.862Z,2.60
2018-02-18T05:49:06.797Z,2.30
2018-02-18T05:51:34.750Z,2.47
2018-02-18T05:54:02.665Z,3.10
2018-02-18T05:56:30.637Z,2.90
2018-02-18T05:58:58.518Z,3.33
2018-02-18T06:01:26.435Z,2.93
2018-02-18T06:03:54.461Z,2.53
2018-02-18T06:06:22.388Z,4.27
2018-02-18T06:08:50.353Z,3.30
2018-02-18T06:11:18.398Z,3.03
2018-02-18T06:13:46.428Z,3.80
2018-02-18T06:16:14.327Z,3.77
2018-02-18T06:18:42.334Z,4.10
2018-02-18T06:21:10.301Z,3.60
2018-02-18T06:23:38.229Z,3.87
2018-02-18T06:26:06.138Z,3.83
2018-02-18T06:28:34.094Z,4.10
2018-02-18T06:31:02.012Z,3.93
2018-02-18T06:33:29.939Z,4.37
2018-02-18T06:35:57.847Z,4.27
2018-02-18T06:38:25.778Z,3.83
2018-02-18T06:40:53.809Z,4.43
2018-02-18T06:43:21.760Z,4.00
2018-02-18T06:45:49.702Z,3.77
2018-02-18T06:48:17.713Z,4.57
2018-02-18T06:50:45.626Z,3.37
2018-02-18T06:53:13.703Z,3.83
2018-02-18T06:55:41.601Z,3.70
2018-02-18T06:58:09.662Z,3.50
2018-02-18T07:00:37.590Z,3.67
2018-02-18T07:03:05.489Z,4.20
2018-02-18T07:05:33.483Z,4.13
2018-02-18T07:08:01.433Z,4.30
2018-02-18T07:10:29.420Z,3.77
2018-02-18T07:12:57.309Z,3.10
2018-02-18T07:15:25.218Z,3.73
2018-02-18T07:17:53.198Z,3.60
2018-02-18T07:20:21.110Z,3.40
2018-02-18T07:22:49.047Z,5.10
2018-02-18T07:25:16.947Z,3.47
2018-02-18T07:27:44.878Z,3.33
2018-02-18T07:30:12.800Z,3.40
2018-02-18T07:32:40.788Z,3.27
2018-02-18T07:35:08.751Z,3.13
2018-02-18T07:37:36.691Z,3.40
2018-02-18T07:40:04.607Z,3.40
2018-02-18T07:42:32.613Z,3.23
2018-02-18T07:45:00.518Z,3.10
2018-02-18T07:47:28.837Z,3.33
2018-02-18T07:49:56.748Z,2.90
2018-02-18T07:52:24.698Z,2.67
2018-02-18T07:54:52.594Z,3.30
2018-02-18T07:57:20.521Z,3.07
2018-02-18T07:59:48.425Z,3.20
2018-02-18T08:02:16.369Z,2.80
2018-02-18T08:04:44.291Z,3.73
2018-02-18T08:07:12.190Z,3.60
2018-02-18T08:09:40.167Z,3.60
2018-02-18T08:12:08.865Z,2.50
2018-02-18T08:14:37.081Z,2.70
2018-02-18T08:17:05.101Z,2.50
2018-02-18T08:19:33.025Z,3.10
2018-02-18T08:22:01.018Z,2.40
2018-02-18T08:24:29.015Z,3.07
2018-02-18T08:26:56.935Z,2.80
2018-02-18T08:29:25.218Z,2.53
2018-02-18T08:31:53.294Z,2.37
2018-02-18T08:34:21.194Z,3.33
2018-02-18T08:36:49.110Z,2.67
2018-02-18T08:39:17.077Z,2.53
2018-02-18T08:41:44.986Z,3.60
2018-02-18T08:44:12.887Z,2.83
2018-02-18T08:46:40.817Z,2.70
2018-02-18T08:49:08.741Z,2.47
2018-02-18T08:51:36.661Z,3.40
2018-02-18T08:54:04.698Z,3.33
2018-02-18T08:56:32.691Z,2.27
2018-02-18T08:59:00.589Z,3.40
2018-02-18T09:01:28.514Z,2.77
2018-02-18T09:03:56.517Z,2.57
2018-02-18T09:06:24.429Z,3.40
2018-02-18T09:08:52.329Z,2.50
2018-02-18T09:11:20.291Z,2.67
2018-02-18T09:13:48.204Z,2.90
2018-02-18T09:16:16.131Z,2.77
2018-02-18T09:18:44.055Z,2.73
2018-02-18T09:21:12.030Z,2.70
2018-02-18T09:23:40.328Z,3.03
2018-02-18T09:26:08.229Z,3.40
2018-02-18T09:28:36.160Z,3.23
2018-02-18T09:31:04.090Z,2.70
2018-02-18T09:33:32.008Z,3.03
2018-02-18T09:35:59.949Z,3.10
2018-02-18T09:38:27.960Z,2.93
2018-02-18T09:40:55.937Z,3.40
2018-02-18T09:43:23.870Z,3.40
2018-02-18T09:45:51.826Z,3.77
2018-02-18T09:48:19.809Z,2.70
2018-02-18T09:50:47.808Z,3.57
2018-02-18T09:53:15.737Z,3.23
2018-02-18T09:55:43.666Z,4.43
2018-02-18T09:58:12.364Z,3.87
2018-02-18T10:00:40.257Z,4.10
2018-02-18T10:03:08.165Z,4.50
2018-02-18T10:05:36.094Z,3.80
2018-02-18T10:08:03.999Z,4.33
2018-02-18T10:10:32.019Z,3.80
2018-02-18T10:13:00.075Z,3.90
2018-02-18T10:15:27.974Z,3.47
2018-02-18T10:17:55.876Z,3.93
2018-02-18T10:20:23.830Z,4.00
2018-02-18T10:22:51.717Z,4.73
2018-02-18T10:25:19.653Z,4.00
2018-02-18T10:27:48.045Z,3.93
2018-02-18T10:30:15.970Z,4.00
2018-02-18T10:32:43.874Z,3.17
2018-02-18T10:35:11.786Z,3.70
2018-02-18T10:37:39.902Z,3.50
2018-02-18T10:40:07.817Z,3.10
2018-02-18T10:42:35.740Z,2.90
2018-02-18T10:45:03.668Z,5.20
2018-02-18T10:47:31.676Z,3.47
2018-02-18T10:49:59.611Z,3.93
2018-02-18T10:52:27.521Z,3.50
2018-02-18T10:54:55.426Z,3.20
2018-02-18T10:57:23.348Z,3.20
2018-02-18T10:59:51.290Z,4.13
2018-02-18T11:02:19.260Z,3.47
2018-02-18T11:04:47.218Z,4.10
2018-02-18T11:07:15.306Z,4.30
2018-02-18T11:09:43.234Z,4.40
2018-02-18T11:12:11.143Z,3.10
2018-02-18T11:14:39.066Z,3.50
2018-02-18T11:17:07.022Z,2.80
2018-02-18T11:19:34.951Z,3.13
2018-02-18T11:22:02.906Z,3.83
2018-02-18T11:24:30.833Z,3.33
2018-02-18T11:26:58.807Z,2.80
2018-02-18T11:29:26.719Z,3.50
2018-02-18T11:31:54.633Z,2.80
2018-02-18T11:34:22.634Z,3.23
2018-02-18T11:36:50.605Z,3.57
2018-02-18T11:39:18.818Z,3.50
2018-02-18T11:41:46.781Z,3.17
2018-02-18T11:44:14.705Z,3.80
2018-02-18T11:46:42.618Z,3.20
2018-02-18T11:49:10.543Z,3.53
2018-02-18T11:51:38.485Z,3.70
2018-02-18T11:54:06.422Z,3.47
2018-02-18T11:56:34.346Z,3.60
2018-02-18T11:59:02.248Z,2.93
2018-02-18T12:01:30.178Z,3.40
2018-02-18T12:03:58.089Z,3.40
2018-02-18T12:06:26.010Z,3.17
2018-02-18T12:08:53.923Z,2.50
2018-02-18T12:11:21.850Z,3.90
2018-02-18T12:13:49.854Z,3.67
2018-02-18T12:16:17.842Z,3.50
2018-02-18T12:18:45.745Z,2.90
2018-02-18T12:21:13.698Z,3.00
2018-02-18T12:23:41.609Z,3.07
2018-02-18T12:26:09.519Z,2.60
2018-02-18T12:28:37.638Z,3.47
2018-02-18T12:31:05.554Z,3.20
2018-02-18T12:33:33.482Z,3.30
2018-02-18T12:36:01.413Z,3.40
2018-02-18T12:38:29.396Z,3.57
2018-02-18T12:40:57.303Z,2.80
2018-02-18T12:43:25.214Z,3.90
2018-02-18T12:45:53.130Z,2.90
2018-02-18T12:48:21.121Z,3.30
2018-02-18T12:50:49.037Z,3.53
2018-02-18T12:53:17.018Z,3.67
2018-02-18T12:55:44.938Z,3.03
2018-02-18T12:58:13.027Z,3.37
2018-02-18T13:00:40.939Z,3.20
2018-02-18T13:03:08.864Z,3.00
2018-02-18T13:05:36.828Z,3.03
2018-02-18T13:08:04.728Z,3.10
2018-02-18T13:10:32.639Z,3.60
2018-02-18T13:13:00.559Z,3.40
2018-02-18T13:15:28.634Z,3.10
2018-02-18T13:17:56.590Z,2.93
2018-02-18T13:20:25.091Z,3.17
2018-02-18T13:22:53.012Z,3.43
2018-02-18T13:25:20.960Z,3.10
2018-02-18T13:27:48.920Z,3.60
2018-02-18T13:30:16.929Z,3.37
2018-02-18T13:32:44.875Z,3.10
2018-02-18T13:35:12.774Z,3.17
2018-02-18T13:37:40.707Z,3.93
2018-02-18T13:40:08.681Z,3.10
2018-02-18T13:42:36.587Z,3.00
2018-02-18T13:45:04.476Z,3.50
2018-02-18T13:47:32.441Z,3.23
2018-02-18T13:50:00.333Z,2.73
2018-02-18T13:52:28.349Z,2.90
2018-02-18T13:54:56.318Z,3.10
2018-02-18T13:57:24.474Z,2.97
2018-02-18T13:59:52.362Z,3.10
2018-02-18T14:02:20.280Z,3.50
2018-02-18T14:04:48.344Z,3.17
2018-02-18T14:07:16.346Z,2.63
2018-02-18T14:09:44.267Z,3.40
2018-02-18T14:12:12.178Z,3.27
2018-02-18T14:14:40.142Z,2.57
2018-02-18T14:17:08.101Z,3.33
2018-02-18T14:19:36.099Z,3.50
2018-02-18T14:22:04.122Z,5.40
2018-02-18T14:24:32.070Z,3.13
2018-02-18T14:26:59.982Z,3.27
2018-02-18T14:29:27.914Z,2.70
2018-02-18T14:31:55.832Z,3.33
2018-02-18T14:34:23.748Z,2.83
2018-02-18T14:36:51.667Z,2.73
2018-02-18T14:39:19.614Z,3.80
2018-02-18T14:41:59.398Z,3.00
2018-02-18T14:44:39.157Z,3.03
2018-02-18T14:47:18.674Z,2.80
2018-02-18T14:49:58.242Z,3.33
2018-02-18T14:52:37.893Z,3.53
2018-02-18T14:55:17.573Z,3.33
2018-02-18T14:57:45.516Z,3.20
2018-02-18T15:00:13.425Z,2.80
2018-02-18T15:02:41.330Z,3.03
2018-02-18T15:05:09.403Z,2.73
2018-02-18T15:07:37.369Z,3.07
2018-02-18T15:10:05.378Z,4.63
2018-02-18T15:12:33.304Z,3.50
2018-02-18T15:15:01.201Z,3.40
2018-02-18T15:17:29.181Z,3.90
2018-02-18T15:19:57.559Z,3.30
2018-02-18T15:22:25.563Z,2.80
2018-02-18T15:24:53.985Z,2.73
2018-02-18T15:27:21.942Z,2.60
2018-02-18T15:29:49.859Z,2.90
2018-02-18T15:32:18.406Z,4.30
2018-02-18T15:34:46.328Z,3.60
2018-02-18T15:37:14.224Z,2.93
2018-02-18T15:39:42.629Z,4.30
2018-02-18T15:42:10.654Z,3.60
2018-02-18T15:44:38.578Z,3.13
2018-02-18T15:47:06.497Z,3.30
2018-02-18T15:49:34.394Z,5.13
2018-02-18T15:52:02.347Z,4.03
2018-02-18T15:54:30.496Z,4.03
2018-02-18T15:56:58.432Z,3.37
2018-02-18T15:59:26.382Z,3.20
2018-02-18T16:01:54.378Z,3.53
2018-02-18T16:04:22.272Z,3.10
2018-02-18T16:06:50.177Z,3.50
2018-02-18T16:09:18.146Z,3.07
2018-02-18T16:11:46.171Z,4.40
2018-02-18T16:14:14.070Z,4.27
2018-02-18T16:16:42.211Z,2.87
2018-02-18T16:19:10.242Z,3.67
2018-02-18T16:21:38.154Z,3.40
2018-02-18T16:24:06.058Z,3.80
2018-02-18T16:26:33.994Z,4.53
2018-02-18T16:29:01.944Z,4.07
2018-02-18T16:31:30.426Z,3.40
2018-02-18T16:33:58.411Z,3.50
2018-02-18T16:36:26.316Z,3.90
2018-02-18T16:38:54.226Z,4.80
2018-02-18T16:41:22.122Z,5.27
2018-02-18T16:43:50.118Z,4.90
2018-02-18T16:46:18.022Z,6.27
2018-02-18T16:48:45.946Z,6.93
2018-02-18T16:51:14.170Z,7.10
2018-02-18T16:53:42.106Z,6.00
2018-02-18T16:56:10.042Z,6.20
2018-02-18T16:58:38.720Z,6.97
2018-02-18T17:01:06.621Z,6.87
2018-02-18T17:03:34.737Z,7.83
2018-02-18T17:06:02.656Z,18.63
2018-02-18T17:08:30.596Z,7.90
2018-02-18T17:10:58.497Z,8.80
2018-02-18T17:13:26.429Z,8.70
2018-02-18T17:15:54.492Z,10.23
2018-02-18T17:18:22.535Z,9.57
2018-02-18T17:20:50.486Z,9.17
2018-02-18T17:23:18.495Z,11.30
2018-02-18T17:25:46.985Z,10.77
2018-02-18T17:28:14.894Z,9.40
2018-02-18T17:30:42.955Z,10.20
2018-02-18T17:33:11.003Z,10.20
2018-02-18T17:35:38.923Z,8.80
2018-02-18T17:38:06.862Z,8.43
2018-02-18T17:40:34.833Z,8.63
2018-02-18T17:43:02.854Z,9.90
2018-02-18T17:45:31.016Z,11.37
2018-02-18T17:47:59.155Z,12.13
2018-02-18T17:50:27.196Z,11.03
2018-02-18T17:52:55.172Z,9.13
2018-02-18T17:55:23.321Z,10.60
2018-02-18T17:57:51.322Z,10.47
2018-02-18T18:00:19.453Z,11.30
2018-02-18T18:02:47.434Z,10.03
2018-02-18T18:05:15.865Z,9.27
2018-02-18T18:07:43.946Z,8.57
2018-02-18T18:10:12.100Z,8.60
2018-02-18T18:12:40.169Z,8.50
2018-02-18T18:15:08.333Z,8.93
2018-02-18T18:17:36.199Z,9.53
2018-02-18T18:20:04.105Z,8.70
2018-02-18T18:22:32.130Z,8.57
2018-02-18T18:25:00.069Z,9.07
2018-02-18T18:27:28.036Z,10.00
2018-02-18T18:29:56.002Z,10.40
2018-02-18T18:32:24.018Z,9.63
2018-02-18T18:34:51.933Z,11.00
2018-02-18T18:37:19.859Z,10.50
2018-02-18T18:39:47.794Z,10.87
2018-02-18T18:42:15.757Z,10.80
2018-02-18T18:44:43.674Z,10.67
2018-02-18T18:47:12.015Z,9.80
2018-02-18T18:49:40.002Z,9.27
2018-02-18T18:52:07.950Z,9.53
2018-02-18T18:54:36.166Z,9.20
2018-02-18T18:57:04.189Z,8.80
2018-02-18T18:59:32.163Z,8.37
2018-02-18T19:02:00.565Z,8.03
2018-02-18T19:04:28.476Z,9.13
2018-02-18T19:06:56.393Z,9.30
2018-02-18T19:09:24.382Z,9.00
2018-02-18T19:11:52.338Z,9.83
2018-02-18T19:14:20.289Z,8.50
2018-02-18T19:16:48.201Z,7.23
2018-02-18T19:19:16.196Z,8.50
2018-02-18T19:21:44.232Z,8.53
2018-02-18T19:24:12.143Z,8.27
2018-02-18T19:26:40.154Z,8.00
2018-02-18T19:29:08.066Z,8.90
2018-02-18T19:31:36.002Z,9.87
2018-02-18T19:34:04.018Z,8.73
2018-02-18T19:36:32.016Z,7.13
2018-02-18T19:38:59.989Z,6.83
2018-02-18T19:41:27.928Z,6.90
2018-02-18T19:43:56.314Z,7.30
2018-02-18T19:46:24.320Z,8.03
2018-02-18T19:48:52.262Z,7.60
2018-02-18T19:51:20.386Z,6.90
2018-02-18T19:53:48.263Z,7.60
2018-02-18T19:56:16.184Z,7.83
2018-02-18T19:58:44.099Z,6.70
2018-02-18T20:01:12.159Z,8.47
2018-02-18T20:03:40.141Z,7.83
2018-02-18T20:06:08.069Z,7.40
2018-02-18T20:08:36.189Z,8.67
2018-02-18T20:11:04.123Z,9.63
2018-02-18T20:13:32.143Z,9.90
2018-02-18T20:16:00.220Z,9.83
2018-02-18T20:18:28.126Z,8.20
2018-02-18T20:20:56.290Z,7.60
2018-02-18T20:23:24.177Z,7.30
2018-02-18T20:25:52.093Z,7.43
2018-02-18T20:28:20.161Z,6.70
2018-02-18T20:30:48.145Z,6.67
2018-02-18T20:33:16.141Z,7.50
2018-02-18T20:35:44.034Z,7.00
2018-02-18T20:38:11.984Z,6.80
2018-02-18T20:40:39.928Z,7.97
2018-02-18T20:43:07.850Z,7.43
2018-02-18T20:45:35.827Z,7.50
2018-02-18T20:48:03.746Z,9.17
2018-02-18T20:50:31.665Z,7.80
2018-02-18T20:53:00.386Z,7.43
2018-02-18T20:55:28.399Z,7.80
2018-02-18T20:57:56.297Z,6.87
2018-02-18T21:00:24.337Z,8.60
2018-02-18T21:02:52.293Z,8.10
2018-02-18T21:05:20.179Z,7.60
2018-02-18T21:07:48.225Z,7.70
2018-02-18T21:10:16.120Z,7.20
2018-02-18T21:12:44.038Z,7.97
2018-02-18T21:15:11.956Z,7.50
2018-02-18T21:17:39.870Z,12.47
2018-02-18T21:20:07.789Z,7.40
2018-02-18T21:22:35.737Z,7.53
2018-02-18T21:25:03.952Z,7.20
2018-02-18T21:27:31.922Z,6.73
2018-02-18T21:29:59.919Z,7.33
2018-02-18T21:32:27.858Z,7.37
2018-02-18T21:34:55.795Z,6.87
2018-02-18T21:37:23.744Z,7.40
2018-02-18T21:39:51.648Z,6.23
2018-02-18T21:42:19.571Z,8.03
2018-02-18T21:44:47.470Z,7.60
2018-02-18T21:47:15.372Z,6.53
2018-02-18T21:49:43.286Z,7.30
2018-02-18T21:52:11.190Z,7.30
2018-02-18T21:54:39.117Z,8.40
2018-02-18T21:57:07.019Z,7.10
2018-02-18T21:59:34.983Z,7.53
2018-02-18T22:02:03.019Z,8.10
2018-02-18T22:04:30.942Z,7.50
2018-02-18T22:06:58.841Z,7.40
2018-02-18T22:09:26.897Z,8.20
2018-02-18T22:11:54.832Z,7.50
2018-02-18T22:14:22.935Z,7.77
2018-02-18T22:16:51.153Z,7.70
2018-02-18T22:19:19.086Z,9.77
2018-02-18T22:21:46.990Z,7.40
2018-02-18T22:24:14.986Z,9.03
2018-02-18T22:26:42.902Z,8.50
2018-02-18T22:29:10.992Z,8.60
2018-02-18T22:31:38.966Z,9.10
2018-02-18T22:34:06.884Z,9.03
2018-02-18T22:36:34.795Z,9.57
2018-02-18T22:39:02.712Z,8.50
2018-02-18T22:41:30.670Z,10.17
2018-02-18T22:43:58.778Z,8.90
2018-02-18T22:46:26.700Z,10.27
2018-02-18T22:48:54.598Z,10.53
2018-02-18T22:51:22.525Z,9.83
2018-02-18T22:53:50.450Z,9.63
2018-02-18T22:56:18.861Z,9.23
2018-02-18T22:58:46.790Z,9.30
2018-02-18T23:01:14.674Z,10.43
2018-02-18T23:03:42.649Z,11.43
2018-02-18T23:06:10.514Z,11.13
2018-02-18T23:08:38.481Z,11.23
2018-02-18T23:11:06.443Z,12.40
2018-02-18T23:13:34.444Z,12.13
2018-02-18T23:16:02.850Z,13.50
2018-02-18T23:18:30.743Z,12.50
2018-02-18T23:21:07.502Z,13.30
2018-02-18T23:23:35.641Z,11.23
2018-02-18T23:26:03.681Z,12.20
2018-02-18T23:28:31.750Z,13.00
2018-02-18T23:30:59.658Z,12.47
2018-02-18T23:33:27.670Z,11.87
2018-02-18T23:35:55.618Z,13.93
2018-02-18T23:38:23.580Z,14.07
2018-02-18T23:40:51.514Z,14.10
2018-02-18T23:43:19.587Z,13.47
2018-02-18T23:45:47.511Z,14.87
2018-02-18T23:48:15.493Z,14.50
2018-02-18T23:50:43.422Z,14.77
2018-02-18T23:53:11.342Z,12.77
2018-02-18T23:55:39.268Z,14.10
2018-02-18T23:58:07.187Z,13.70
